Time;durP1;ratioP1;P1;durP2;ratioP2;P2;SDS_P1;SDS_P2;PMS_P1;PMS_P2;Temp;Humidity;BMP_temperature;BMP_pressure;BME280_temperature;BME280_humidity;BME280_pressure;Samples;Min_cycle;Max_cycle;Signal;HPM_P1;HPM_P2
2021/07/15 00:00:53;;;;;;;30.50;25.30;;;;;;;18.36;100.00;101094.56;5222447;28;20483;-66
2021/07/15 00:03:28;;;;;;;31.70;25.40;;;;;;;18.36;100.00;101100.69;5221075;28;20087;-66
2021/07/15 00:06:00;;;;;;;27.35;23.52;;;;;;;18.32;100.00;101093.25;5219337;28;20022;-66
2021/07/15 00:08:31;;;;;;;29.15;24.10;;;;;;;18.33;100.00;101086.94;5218371;28;20564;-66
2021/07/15 00:11:10;;;;;;;26.07;22.97;;;;;;;18.36;100.00;101084.75;5222996;28;20022;-66
2021/07/15 00:13:41;;;;;;;25.85;23.05;;;;;;;18.32;100.00;101085.28;5223815;28;20029;-67
2021/07/15 00:16:13;;;;;;;27.63;23.83;;;;;;;18.34;100.00;101091.28;5225196;28;20036;-66
2021/07/15 00:18:48;;;;;;;29.93;23.20;;;;;;;18.31;100.00;101095.09;5223626;28;20026;-67
2021/07/15 00:21:22;;;;;;;30.38;26.13;;;;;;;18.29;100.00;101090.94;5224331;28;20048;-67
2021/07/15 00:23:54;;;;;;;30.60;27.02;;;;;;;18.27;100.00;101083.19;5223753;28;20474;-67
2021/07/15 00:26:25;;;;;;;30.03;26.83;;;;;;;18.30;100.00;101090.78;5226109;28;20029;-66
2021/07/15 00:28:56;;;;;;;31.87;26.77;;;;;;;18.27;100.00;101093.78;5226869;28;20104;-66
2021/07/15 00:31:28;;;;;;;32.13;27.57;;;;;;;18.24;100.00;101087.00;5222907;28;20349;-66
2021/07/15 00:33:59;;;;;;;31.98;27.17;;;;;;;18.23;100.00;101095.97;5224242;28;20021;-66
2021/07/15 00:36:30;;;;;;;32.57;27.13;;;;;;;18.24;100.00;101097.59;5224272;28;20041;-66
2021/07/15 00:39:05;;;;;;;35.58;26.88;;;;;;;18.21;100.00;101097.13;5223982;28;20033;-66
2021/07/15 00:41:36;;;;;;;32.05;25.50;;;;;;;18.20;100.00;101087.53;5222988;28;20037;-66
2021/07/15 00:44:07;;;;;;;28.92;24.30;;;;;;;18.16;100.00;101086.22;5222916;28;20504;-67
2021/07/15 00:46:38;;;;;;;28.07;25.10;;;;;;;18.14;100.00;101091.69;5223727;28;20026;-67
2021/07/15 00:49:10;;;;;;;31.00;24.17;;;;;;;18.11;100.00;101086.75;5225401;28;20480;-66
2021/07/15 00:51:41;;;;;;;24.83;22.13;;;;;;;18.11;100.00;101083.28;5224042;28;20372;-67
2021/07/15 00:54:12;;;;;;;29.00;22.67;;;;;;;18.10;100.00;101082.41;5224713;28;20441;-67
2021/07/15 00:56:44;;;;;;;26.10;21.63;;;;;;;18.08;100.00;101079.13;5225072;28;20064;-67
2021/07/15 00:59:20;;;;;;;23.70;19.30;;;;;;;18.08;100.00;101079.13;5224302;28;20029;-67
2021/07/15 01:01:52;;;;;;;26.15;20.80;;;;;;;18.06;100.00;101082.94;5223344;28;20317;-67
2021/07/15 01:04:23;;;;;;;22.52;17.40;;;;;;;18.06;100.00;101082.94;5221440;28;20037;-67
2021/07/15 01:06:57;;;;;;;18.40;16.47;;;;;;;18.07;100.00;101090.75;5221871;28;20037;-67
2021/07/15 01:09:31;;;;;;;18.80;16.80;;;;;;;18.04;100.00;101085.78;5222622;28;20025;-67
2021/07/15 01:12:15;;;;;;;19.00;17.00;;;;;;;18.05;100.00;101076.00;5222229;28;20392;-67
2021/07/15 01:15:05;;;;;;;17.63;14.98;;;;;;;18.06;100.00;101077.66;5223483;28;20030;-66
2021/07/15 01:17:51;;;;;;;16.60;14.73;;;;;;;18.04;100.00;101080.47;5222683;28;20042;-67
2021/07/15 01:20:51;;;;;;;16.08;13.45;;;;;;;18.06;100.00;101072.34;5220661;28;20030;-67
2021/07/15 01:23:55;;;;;;;15.88;13.00;;;;;;;18.06;100.00;101078.47;5223812;28;20053;-67
2021/07/15 01:27:04;;;;;;;14.43;12.48;;;;;;;18.06;100.00;101075.00;5196582;28;20526;-67
2021/07/15 01:29:47;;;;;;;13.23;11.88;;;;;;;18.06;100.00;101075.81;5223810;28;20504;-67
2021/07/15 01:32:23;;;;;;;13.55;12.15;;;;;;;18.02;100.00;101065.72;5227279;28;20036;-67
2021/07/15 01:35:00;;;;;;;17.75;14.45;;;;;;;18.01;100.00;101066.75;5222976;28;20030;-67
2021/07/15 01:37:33;;;;;;;16.65;14.80;;;;;;;17.98;100.00;101074.03;5221852;28;20068;-67
2021/07/15 01:40:07;;;;;;;19.58;15.50;;;;;;;17.99;100.00;101080.16;5223020;28;20483;-67
2021/07/15 01:42:40;;;;;;;19.10;16.55;;;;;;;17.95;100.00;101084.16;5221189;28;20148;-67
2021/07/15 01:45:11;;;;;;;;;;;;;;;18.16;100.00;101089.69;5220406;28;20026;-67
2021/07/15 01:47:42;;;;;;;19.90;17.17;;;;;;;18.06;100.00;101099.69;5223572;28;19913;-67
2021/07/15 01:50:14;;;;;;;20.37;18.17;;;;;;;18.02;100.00;101090.41;5222781;28;20032;-67
2021/07/15 01:52:49;;;;;;;19.52;17.40;;;;;;;18.01;100.00;101094.06;5221732;28;20037;-67
2021/07/15 01:55:22;;;;;;;22.75;18.67;;;;;;;18.02;100.00;101082.47;5221727;28;20068;-67
2021/07/15 01:57:54;;;;;;;22.15;18.40;;;;;;;18.03;100.00;101081.47;5223547;28;20026;-67
2021/07/15 02:00:25;;;;;;;24.35;20.65;;;;;;;18.05;100.00;101068.03;5220401;28;20470;-67
2021/07/15 02:02:59;;;;;;;25.20;19.52;;;;;;;18.02;100.00;101055.94;5219444;28;20045;-67
2021/07/15 02:05:32;;;;;;;25.33;20.02;;;;;;;17.92;100.00;101045.59;5216185;28;20040;-67
2021/07/15 02:08:04;;;;;;;27.67;21.48;;;;;;;18.03;100.00;101059.44;5220530;28;20495;-67
2021/07/15 02:10:36;;;;;;;24.17;20.87;;;;;;;18.05;100.00;101057.44;5218508;28;20029;-67
2021/07/15 02:13:09;;;;;;;26.73;20.90;;;;;;;18.00;100.00;101063.28;5221079;28;20519;-67
2021/07/15 02:15:41;;;;;;;;;;;;;;;18.17;100.00;101050.75;5220816;28;20021;-67
2021/07/15 02:18:18;;;;;;;22.05;18.45;;;;;;;18.00;100.00;101060.63;5220699;28;19967;-68
2021/07/15 02:20:52;;;;;;;26.80;19.52;;;;;;;17.98;100.00;101062.59;5224283;28;20030;-67
2021/07/15 02:23:27;;;;;;;22.20;18.33;;;;;;;17.95;100.00;101068.25;5223461;28;20395;-67
2021/07/15 02:25:59;;;;;;;25.17;18.60;;;;;;;17.94;100.00;101064.78;5221365;28;20033;-67
2021/07/15 02:28:32;;;;;;;21.83;18.20;;;;;;;17.97;100.00;101076.88;5220858;28;20083;-67
2021/07/15 02:31:09;;;;;;;20.02;17.80;;;;;;;17.95;100.00;101082.31;5220604;28;20059;-67
2021/07/15 02:33:44;;;;;;;21.15;18.88;;;;;;;17.98;100.00;101094.41;5223083;28;20037;-67
2021/07/15 02:36:18;;;;;;;26.35;19.90;;;;;;;17.97;100.00;101090.13;5219534;28;20100;-69
2021/07/15 02:38:52;;;;;;;26.85;20.90;;;;;;;17.96;100.00;101088.47;5221850;28;20120;-69
2021/07/15 02:41:23;;;;;;;26.02;21.10;;;;;;;17.93;100.00;101096.75;5220427;28;20017;-70
2021/07/15 02:43:55;;;;;;;24.00;18.20;;;;;;;17.89;100.00;101074.25;5219381;28;20034;-69
2021/07/15 02:46:26;;;;;;;22.17;17.97;;;;;;;17.92;100.00;101100.41;5220164;28;20483;-69
2021/07/15 02:48:59;;;;;;;20.73;16.70;;;;;;;17.83;100.00;101096.97;5222589;28;20108;-69
2021/07/15 02:51:32;;;;;;;20.75;15.70;;;;;;;17.87;100.00;101100.91;5222715;28;20030;-69
2021/07/15 02:54:03;;;;;;;17.93;15.37;;;;;;;17.88;100.00;101105.25;5219433;28;20096;-70
2021/07/15 02:56:52;;;;;;;16.38;14.30;;;;;;;17.93;100.00;101099.41;5220804;28;20748;-70
2021/07/15 02:59:43;;;;;;;16.02;14.07;;;;;;;17.92;100.00;101093.28;5222146;28;20029;-70
2021/07/15 03:02:31;;;;;;;16.17;14.48;;;;;;;17.94;100.00;101098.41;5220708;28;20030;-70
2021/07/15 03:05:10;;;;;;;17.65;15.50;;;;;;;17.90;100.00;101105.88;5220034;28;20092;-70
2021/07/15 03:07:49;;;;;;;17.75;15.27;;;;;;;17.89;100.00;101104.22;5221603;28;20049;-70
2021/07/15 03:10:21;;;;;;;17.30;15.43;;;;;;;17.83;100.00;101102.25;5220287;28;20029;-70
2021/07/15 03:12:55;;;;;;;17.87;14.30;;;;;;;17.85;100.00;101107.41;5223167;28;20529;-70
2021/07/15 03:15:27;;;;;;;16.92;14.70;;;;;;;17.84;100.00;101111.88;5220084;28;20422;-70
2021/07/15 03:17:58;;;;;;;16.27;14.55;;;;;;;17.85;100.00;101110.06;5219709;28;20116;-69
2021/07/15 03:20:33;;;;;;;20.03;15.63;;;;;;;17.86;100.00;101109.88;5223364;28;20152;-70
2021/07/15 03:23:11;;;;;;;18.33;15.80;;;;;;;17.85;100.00;101102.09;5221776;28;20029;-70
2021/07/15 03:25:48;;;;;;;18.70;16.05;;;;;;;17.85;100.00;101105.56;5220855;28;20037;-70
2021/07/15 03:28:23;;;;;;;18.92;16.23;;;;;;;17.86;100.00;101098.44;5221018;28;20041;-70
2021/07/15 03:30:57;;;;;;;17.88;15.90;;;;;;;17.82;100.00;101113.03;5219587;28;20494;-70
2021/07/15 03:33:29;;;;;;;20.05;16.10;;;;;;;17.82;100.00;101116.50;5220929;28;20450;-70
2021/07/15 03:36:04;;;;;;;20.87;18.17;;;;;;;17.85;100.00;101118.84;5209273;28;20044;-70
2021/07/15 03:38:39;;;;;;;21.52;18.05;;;;;;;17.82;100.00;101121.00;5221963;28;20030;-70
2021/07/15 03:41:14;;;;;;;24.88;20.10;;;;;;;17.83;100.00;101122.63;5221692;28;20025;-70
2021/07/15 03:43:46;;;;;;;24.42;19.83;;;;;;;17.82;100.00;101121.00;5220018;28;20140;-70
2021/07/15 03:46:18;;;;;;;26.67;20.48;;;;;;;17.81;100.00;101117.53;5225933;28;20033;-70
2021/07/15 03:48:49;;;;;;;23.13;19.05;;;;;;;17.82;100.00;101119.16;5225729;28;20380;-70
2021/07/15 03:51:21;;;;;;;26.50;19.57;;;;;;;17.84;100.00;101117.19;5225244;28;20029;-69
2021/07/15 03:53:53;;;;;;;24.38;17.85;;;;;;;17.76;100.00;101109.22;5223905;28;20057;-70
2021/07/15 03:56:25;;;;;;;21.90;17.60;;;;;;;17.82;100.00;101134.25;5240999;28;20037;-70
2021/07/15 03:59:01;;;;;;;19.60;17.13;;;;;;;17.81;100.00;101130.78;5224561;28;20037;-70
2021/07/15 04:01:33;;;;;;;22.85;17.88;;;;;;;17.79;100.00;101126.63;5217656;28;20368;-70
2021/07/15 04:04:06;;;;;;;19.43;17.13;;;;;;;17.81;100.00;101119.34;5223150;28;20116;-70
2021/07/15 04:06:39;;;;;;;20.17;16.08;;;;;;;17.81;100.00;101124.66;5224459;28;20022;-70
2021/07/15 04:09:13;;;;;;;17.85;15.60;;;;;;;17.77;100.00;101133.91;5222463;28;20582;-70
2021/07/15 04:11:47;;;;;;;17.55;14.50;;;;;;;17.79;100.00;101131.94;5224983;28;20033;-70
2021/07/15 04:14:31;;;;;;;16.38;14.55;;;;;;;17.78;100.00;101131.09;5224531;28;20018;-70
2021/07/15 04:17:09;;;;;;;15.57;13.98;;;;;;;17.82;100.00;101131.59;5223955;28;20068;-70
2021/07/15 04:19:41;;;;;;;16.30;13.38;;;;;;;17.77;100.00;101136.56;5224108;28;20105;-70
2021/07/15 04:22:13;;;;;;;15.60;12.23;;;;;;;17.78;100.00;101146.19;5224689;28;20028;-70
2021/07/15 04:24:46;;;;;;;14.65;12.82;;;;;;;17.77;100.00;101148.00;5225425;28;20065;-69
2021/07/15 04:27:17;;;;;;;13.38;11.93;;;;;;;17.77;100.00;101148.00;5224479;28;20030;-69
2021/07/15 04:29:50;;;;;;;13.80;11.77;;;;;;;17.76;100.00;101149.00;5224703;28;20027;-70
2021/07/15 04:32:26;;;;;;;13.30;11.38;;;;;;;17.76;100.00;101138.38;5224144;28;20032;-70
2021/07/15 04:34:58;;;;;;;13.02;11.57;;;;;;;17.77;100.00;101141.84;5224909;28;20083;-70
2021/07/15 04:37:31;;;;;;;11.32;9.77;;;;;;;17.78;100.00;101135.59;5226004;28;20504;-70
2021/07/15 04:40:03;;;;;;;;;;;;;;;17.95;100.00;101139.81;5223905;28;20029;-70
2021/07/15 04:42:37;;;;;;;10.13;8.95;;;;;;;17.79;100.00;101148.66;5224723;28;19924;-70
2021/07/15 04:45:10;;;;;;;11.20;9.40;;;;;;;17.77;100.00;101152.47;5223649;28;20026;-70
2021/07/15 04:47:44;;;;;;;9.90;8.90;;;;;;;17.75;100.00;101153.47;5223361;28;20585;-70
2021/07/15 04:50:18;;;;;;;11.73;9.45;;;;;;;17.76;100.00;101164.88;5225014;28;20088;-70
2021/07/15 04:52:55;;;;;;;10.75;9.45;;;;;;;17.78;100.00;101172.69;5221724;28;20056;-70
2021/07/15 04:55:27;;;;;;;10.55;9.20;;;;;;;17.75;100.00;101166.72;5224347;28;20018;-70
2021/07/15 04:58:01;;;;;;;10.10;9.07;;;;;;;17.79;100.00;101163.72;5215923;28;20025;-70
2021/07/15 05:00:33;;;;;;;9.95;8.18;;;;;;;17.80;100.00;101168.84;5223174;28;20020;-70
2021/07/15 05:03:07;;;;;;;11.00;7.68;;;;;;;17.78;100.00;101168.22;5222926;28;20036;-70
2021/07/15 05:05:39;;;;;;;9.68;8.35;;;;;;;17.78;100.00;101172.69;5222486;28;20431;-70
2021/07/15 05:08:10;;;;;;;9.18;7.53;;;;;;;17.81;100.00;101173.19;5223949;28;20167;-70
2021/07/15 05:10:42;;;;;;;8.18;7.32;;;;;;;17.74;100.00;101169.50;5223166;28;20030;-70
2021/07/15 05:13:13;;;;;;;9.30;7.97;;;;;;;17.78;100.00;101176.16;5222068;28;20029;-70
2021/07/15 05:15:49;;;;;;;9.43;7.75;;;;;;;17.78;100.00;101173.50;5224247;28;20141;-70
2021/07/15 05:18:21;;;;;;;10.45;8.30;;;;;;;17.75;100.00;101174.66;5224875;28;20076;-70
2021/07/15 05:20:52;;;;;;;10.57;8.60;;;;;;;17.74;100.00;101167.69;5222246;28;20593;-70
2021/07/15 05:23:24;;;;;;;10.57;9.47;;;;;;;17.77;100.00;101161.25;5222721;28;20018;-70
2021/07/15 05:25:56;;;;;;;10.65;9.38;;;;;;;17.75;100.00;101156.13;5221459;28;20423;-70
2021/07/15 05:28:28;;;;;;;11.70;10.40;;;;;;;17.77;100.00;101165.72;5223365;28;20108;-70
2021/07/15 05:30:59;;;;;;;13.55;10.90;;;;;;;17.76;100.00;101159.59;5223392;28;20022;-70
2021/07/15 05:33:30;;;;;;;13.73;11.43;;;;;;;17.78;100.00;101168.22;5223220;28;20026;-70
2021/07/15 05:36:02;;;;;;;14.18;11.23;;;;;;;17.78;100.00;101170.03;5222768;28;20072;-70
2021/07/15 05:38:33;;;;;;;13.27;11.05;;;;;;;17.78;100.00;101177.97;5221778;28;20032;-70
2021/07/15 05:41:05;;;;;;;15.60;11.50;;;;;;;17.72;100.00;101172.31;5225260;28;20061;-70
2021/07/15 05:43:37;;;;;;;10.80;9.20;;;;;;;17.77;100.00;101181.59;5222818;28;20041;-70
2021/07/15 05:46:08;;;;;;;11.97;9.90;;;;;;;17.77;100.00;101178.97;5220455;28;20080;-70
2021/07/15 05:48:40;;;;;;;10.63;9.55;;;;;;;17.79;100.00;101182.28;5222785;28;20036;-70
2021/07/15 05:51:11;;;;;;;9.83;8.77;;;;;;;17.75;100.00;101179.97;5221087;28;20501;-70
2021/07/15 05:53:42;;;;;;;9.43;8.52;;;;;;;17.74;100.00;101172.16;5223042;28;20112;-71
2021/07/15 05:56:14;;;;;;;9.80;8.80;;;;;;;17.73;100.00;101181.94;5220751;28;20017;-70
2021/07/15 05:58:45;;;;;;;8.87;7.97;;;;;;;17.75;100.00;101173.84;5221262;28;20029;-71
2021/07/15 06:01:16;;;;;;;9.63;8.63;;;;;;;17.75;100.00;101177.31;5237505;28;20529;-70
2021/07/15 06:03:48;;;;;;;11.13;9.27;;;;;;;17.72;100.00;101179.44;5220379;28;20364;-70
2021/07/15 06:06:19;;;;;;;11.60;9.57;;;;;;;17.72;100.00;101182.91;5221692;28;20026;-70
2021/07/15 06:08:52;;;;;;;13.10;9.70;;;;;;;17.72;100.00;101180.25;5221775;28;20559;-70
2021/07/15 06:11:23;;;;;;;11.15;9.48;;;;;;;17.70;100.00;101184.09;5220612;28;20479;-70
2021/07/15 06:13:55;;;;;;;11.10;9.75;;;;;;;17.72;100.00;101188.22;5221108;28;20034;-70
2021/07/15 06:16:26;;;;;;;11.68;9.45;;;;;;;17.70;100.00;101197.34;5220095;28;20026;-70
2021/07/15 06:18:57;;;;;;;10.33;9.33;;;;;;;17.68;100.00;101194.03;5221940;28;20475;-70
2021/07/15 06:21:29;;;;;;;9.73;8.73;;;;;;;17.70;100.00;101211.41;5220092;28;20033;-70
2021/07/15 06:24:01;;;;;;;10.75;9.57;;;;;;;17.69;100.00;101219.53;5236278;28;20037;-70
2021/07/15 06:26:32;;;;;;;12.73;9.70;;;;;;;17.68;100.00;101242.53;5222749;28;20082;-70
2021/07/15 06:29:04;;;;;;;11.90;9.20;;;;;;;17.67;100.00;101240.91;5216530;28;20475;-68
2021/07/15 06:31:37;;;;;;;10.30;9.23;;;;;;;17.68;100.00;101231.94;5222685;28;20026;-68
2021/07/15 06:34:10;;;;;;;11.50;9.98;;;;;;;17.68;100.00;101231.13;5221361;28;20713;-69
2021/07/15 06:36:45;;;;;;;12.35;9.85;;;;;;;17.70;100.00;101232.63;5219485;28;20443;-69
2021/07/15 06:39:16;;;;;;;12.95;10.27;;;;;;;17.65;100.00;101227.00;5221092;28;20025;-68
2021/07/15 06:41:47;;;;;;;12.30;10.55;;;;;;;17.67;100.00;101235.59;5220576;28;20099;-68
2021/07/15 06:44:18;;;;;;;11.77;10.43;;;;;;;17.70;100.00;101229.16;5220156;28;20030;-68
2021/07/15 06:46:50;;;;;;;12.07;10.63;;;;;;;17.65;100.00;101237.59;5221710;28;20037;-68
2021/07/15 06:49:25;;;;;;;11.63;10.50;;;;;;;17.68;100.00;101236.41;5221275;28;20033;-69
2021/07/15 06:51:57;;;;;;;13.45;11.10;;;;;;;17.66;100.00;101239.25;5220713;28;20033;-69
2021/07/15 06:54:30;;;;;;;13.00;10.85;;;;;;;17.70;100.00;101240.56;5219873;28;20668;-68
2021/07/15 06:57:01;;;;;;;13.00;11.07;;;;;;;17.70;100.00;101239.75;5221223;28;20466;-68
2021/07/15 06:59:33;;;;;;;11.98;10.63;;;;;;;17.68;100.00;101250.50;5219114;28;20033;-68
2021/07/15 07:02:06;;;;;;;14.37;11.30;;;;;;;17.70;100.00;101240.56;5223125;28;20053;-68
2021/07/15 07:04:38;;;;;;;13.18;10.68;;;;;;;17.70;100.00;101245.88;5218729;28;20029;-69
2021/07/15 07:07:09;;;;;;;13.93;10.85;;;;;;;17.70;100.00;101245.03;5220190;28;20044;-68
2021/07/15 07:09:40;;;;;;;11.35;10.05;;;;;;;17.70;100.00;101256.47;5219173;28;20040;-68
2021/07/15 07:12:11;;;;;;;11.98;10.02;;;;;;;17.70;100.00;101258.28;5221368;28;20054;-69
2021/07/15 07:14:43;;;;;;;14.83;10.87;;;;;;;17.71;100.00;101273.19;5219950;28;20083;-69
2021/07/15 07:17:14;;;;;;;14.73;11.63;;;;;;;17.70;100.00;101269.72;5219940;28;20037;-69
2021/07/15 07:19:45;;;;;;;15.07;11.65;;;;;;;17.69;100.00;101269.88;5221062;28;20125;-69
2021/07/15 07:22:17;;;;;;;15.80;12.25;;;;;;;17.70;100.00;101280.31;5223832;28;20037;-69
2021/07/15 07:24:48;;;;;;;14.15;11.98;;;;;;;17.70;100.00;101282.97;5226942;28;20032;-69
2021/07/15 07:27:19;;;;;;;15.00;12.00;;;;;;;17.72;100.00;101288.09;5225340;28;20437;-69
2021/07/15 07:29:50;;;;;;;16.65;11.93;;;;;;;17.69;100.00;101289.28;5224531;28;20030;-69
2021/07/15 07:32:22;;;;;;;17.70;12.80;;;;;;;17.70;100.00;101292.75;5223519;28;20025;-69
2021/07/15 07:34:53;;;;;;;18.60;12.30;;;;;;;17.71;100.00;101294.38;5226704;28;20018;-68
2021/07/15 07:37:25;;;;;;;15.53;12.20;;;;;;;17.72;100.00;101294.22;5226950;28;20042;-69
2021/07/15 07:39:56;;;;;;;15.30;12.52;;;;;;;17.72;100.00;101288.09;5222340;28;20100;-68
2021/07/15 07:42:28;;;;;;;15.23;11.63;;;;;;;17.72;100.00;101285.44;5224252;28;20014;-68
2021/07/15 07:44:59;;;;;;;12.90;11.20;;;;;;;17.72;100.00;101286.25;5224567;28;20025;-68
2021/07/15 07:47:30;;;;;;;15.63;11.03;;;;;;;17.71;100.00;101291.75;5223626;28;20030;-68
2021/07/15 07:50:03;;;;;;;16.27;11.02;;;;;;;17.71;100.00;101302.34;5225047;28;20030;-68
2021/07/15 07:52:34;;;;;;;;;;;;;;;17.88;100.00;101296.09;5224299;28;20037;-68
2021/07/15 07:55:07;;;;;;;13.65;11.05;;;;;;;17.69;100.00;101293.72;5225069;28;19917;-68
2021/07/15 07:57:39;;;;;;;18.65;11.68;;;;;;;17.65;100.00;101298.53;5224245;28;20033;-68
2021/07/15 08:00:14;;;;;;;18.55;11.32;;;;;;;17.72;100.00;101302.16;5224871;28;20466;-68
2021/07/15 08:02:47;;;;;;;13.30;10.38;;;;;;;17.65;100.00;101295.91;5223999;28;20018;-68
2021/07/15 08:05:22;;;;;;;14.30;9.63;;;;;;;17.64;100.00;101304.00;5223819;28;20025;-68
2021/07/15 08:07:53;;;;;;;13.40;9.60;;;;;;;17.67;100.00;101307.16;5226051;28;20475;-68
2021/07/15 08:10:25;;;;;;;10.60;8.68;;;;;;;17.65;100.00;101301.19;5225155;28;20033;-68
2021/07/15 08:12:56;;;;;;;10.37;8.27;;;;;;;17.65;100.00;101310.94;5223798;28;20399;-69
2021/07/15 08:15:28;;;;;;;10.70;8.57;;;;;;;17.61;100.00;101310.44;5220749;28;20026;-69
2021/07/15 08:17:59;;;;;;;10.87;8.30;;;;;;;17.67;100.00;101316.91;5221652;28;20046;-69
2021/07/15 08:20:30;;;;;;;9.40;7.47;;;;;;;17.67;100.00;101308.97;5219700;28;20026;-69
2021/07/15 08:23:02;;;;;;;10.13;6.93;;;;;;;17.68;100.00;101314.09;5221506;28;20026;-69
2021/07/15 08:25:33;;;;;;;7.72;6.70;;;;;;;17.70;100.00;101322.72;5220734;28;20028;-69
2021/07/15 08:28:04;;;;;;;7.67;5.57;;;;;;;17.69;100.00;101321.06;5223304;28;20119;-69
2021/07/15 08:30:36;;;;;;;8.03;6.37;;;;;;;17.71;100.00;101324.38;5222170;28;20029;-69
2021/07/15 08:33:07;;;;;;;7.70;6.60;;;;;;;17.71;100.00;101336.78;5222199;28;20483;-69
2021/07/15 08:35:38;;;;;;;9.40;6.77;;;;;;;17.73;100.00;101338.28;5222657;28;20022;-69
2021/07/15 08:38:11;;;;;;;8.10;7.30;;;;;;;17.73;100.00;101338.28;5219214;28;20517;-69
2021/07/15 08:40:43;;;;;;;9.80;7.60;;;;;;;17.74;100.00;101342.59;5221814;28;20345;-69
2021/07/15 08:43:15;;;;;;;10.02;8.50;;;;;;;17.72;100.00;101341.91;5223303;28;20018;-69
2021/07/15 08:45:47;;;;;;;12.27;7.72;;;;;;;17.74;100.00;101345.25;5225007;28;20032;-69
2021/07/15 08:48:19;;;;;;;11.17;8.97;;;;;;;17.73;100.00;101354.19;5219277;28;20040;-69
2021/07/15 08:50:51;;;;;;;11.40;9.25;;;;;;;17.73;100.00;101348.91;5219323;28;20297;-69
2021/07/15 08:53:23;;;;;;;15.67;9.83;;;;;;;17.75;100.00;101354.06;5220020;28;20365;-69
2021/07/15 08:58:46;;;;;;;13.10;10.27;;;;;;;17.74;100.00;101358.50;5218180;28;20038;-69
2021/07/15 09:01:17;;;;;;;16.20;11.18;;;;;;;17.75;100.00;101352.22;5225959;28;20021;-69
2021/07/15 09:03:49;;;;;;;14.43;10.87;;;;;;;17.76;100.00;101350.41;5217834;28;20754;-69
2021/07/15 09:06:20;;;;;;;13.70;10.73;;;;;;;17.76;100.00;101353.03;5221339;28;20034;-69
2021/07/15 09:08:53;;;;;;;13.63;11.40;;;;;;;17.77;100.00;101356.53;5224417;28;20049;-69
2021/07/15 09:11:25;;;;;;;12.25;10.02;;;;;;;17.76;100.00;101368.94;5223185;28;20372;-69
2021/07/15 09:13:56;;;;;;;15.85;10.15;;;;;;;17.77;100.00;101370.63;5221092;28;20048;-69
2021/07/15 09:16:27;;;;;;;11.13;9.53;;;;;;;17.77;100.00;101367.97;5221974;28;20491;-69
2021/07/15 09:19:08;;;;;;;11.60;9.23;;;;;;;17.85;100.00;101372.47;5222051;28;20030;-69
2021/07/15 09:21:39;;;;;;;10.73;8.38;;;;;;;17.73;100.00;101372.75;5224384;28;20124;-69
2021/07/15 09:24:31;;;;;;;11.73;7.80;;;;;;;17.81;100.00;101377.25;5222416;28;20123;-69
2021/07/15 09:27:15;;;;;;;10.82;8.15;;;;;;;17.75;100.00;101384.03;5220711;28;20064;-69
2021/07/15 09:30:09;;;;;;;10.07;7.88;;;;;;;17.80;100.00;101385.34;5219389;28;20550;-69
2021/07/15 09:32:53;;;;;;;10.20;8.27;;;;;;;17.81;100.00;101385.22;5219255;28;20056;-69
2021/07/15 09:35:42;;;;;;;8.90;7.82;;;;;;;17.74;100.00;101400.06;5219763;28;20649;-69
2021/07/15 09:38:16;;;;;;;10.77;8.95;;;;;;;17.67;100.00;101394.59;5220302;28;20045;-69
2021/07/15 09:41:00;;;;;;;14.05;9.80;;;;;;;17.73;100.00;101388.66;5220769;28;20037;-69
2021/07/15 09:43:41;;;;;;;14.65;10.27;;;;;;;17.73;100.00;101398.41;5221402;28;20121;-69
2021/07/15 09:46:12;;;;;;;14.90;10.77;;;;;;;17.72;100.00;101400.22;5220659;28;20025;-69
2021/07/15 09:48:46;;;;;;;13.88;10.52;;;;;;;17.74;100.00;101389.47;5222717;28;20505;-69
2021/07/15 09:51:18;;;;;;;14.95;11.23;;;;;;;17.76;100.00;101390.16;5210199;28;20041;-68
2021/07/15 09:53:49;;;;;;;14.85;10.98;;;;;;;17.79;100.00;101402.25;5212885;28;20399;-70
2021/07/15 09:56:21;;;;;;;16.93;12.43;;;;;;;17.76;100.00;101398.09;5215265;28;20025;-69
2021/07/15 09:58:55;;;;;;;17.40;12.60;;;;;;;17.83;100.00;101404.41;5219356;28;20033;-69
2021/07/15 10:01:26;;;;;;;16.13;12.10;;;;;;;17.81;100.00;101400.28;5218653;28;20928;-71
2021/07/15 10:04:03;;;;;;;15.55;11.60;;;;;;;17.89;100.00;101397.63;5217283;28;20052;-69
2021/07/15 10:06:45;;;;;;;15.85;11.60;;;;;;;17.94;100.00;101397.97;5219763;28;20034;-69
2021/07/15 10:09:30;;;;;;;13.77;11.10;;;;;;;17.91;100.00;101395.63;5217454;28;20033;-69
2021/07/15 10:12:04;;;;;;;12.38;10.35;;;;;;;17.88;100.00;101394.16;5219386;28;20032;-71
2021/07/15 10:14:38;;;;;;;17.00;11.68;;;;;;;17.91;100.00;101406.25;5218650;28;20029;-69
2021/07/15 10:17:10;;;;;;;13.60;9.93;;;;;;;17.91;100.00;101399.09;5216722;28;20034;-69
2021/07/15 10:19:43;;;;;;;14.50;10.80;;;;;;;17.99;100.00;101406.25;5219828;28;20037;-69
2021/07/15 10:22:14;;;;;;;;;;;;;;;18.17;100.00;101409.56;5216471;28;20116;-72
2021/07/15 10:24:45;;;;;;;15.57;9.87;;;;;;;18.02;100.00;101408.56;5219705;28;19975;-72
2021/07/15 10:27:18;;;;;;;14.17;10.90;;;;;;;17.97;100.00;101410.91;5220879;28;20028;-72
2021/07/15 10:29:49;;;;;;;14.25;10.15;;;;;;;17.97;100.00;101416.19;5215510;28;20034;-73
2021/07/15 10:32:23;;;;;;;15.47;10.87;;;;;;;18.00;100.00;101413.22;5219192;28;20454;-72
2021/07/15 10:34:55;;;;;;;11.43;9.85;;;;;;;17.96;100.00;101419.84;5216114;28;20110;-72
2021/07/15 10:37:27;;;;;;;15.65;10.13;;;;;;;17.94;100.00;101419.16;5215539;28;20136;-69
2021/07/15 10:40:00;;;;;;;13.13;9.95;;;;;;;17.93;100.00;101422.81;5216879;28;20029;-70
2021/07/15 10:42:31;;;;;;;;;;;;;;;18.14;100.00;101417.84;5224983;28;20061;-70
2021/07/15 10:45:07;;;;;;;16.25;9.88;;;;;;;17.85;100.00;101428.13;5216934;28;20474;-69
2021/07/15 10:47:39;;;;;;;14.90;10.07;;;;;;;17.88;100.00;101430.41;5218263;28;20042;-69
2021/07/15 10:50:11;;;;;;;14.80;8.98;;;;;;;17.86;100.00;101433.25;5216122;28;20037;-69
2021/07/15 10:52:43;;;;;;;11.57;9.17;;;;;;;17.83;100.00;101436.22;5215820;28;20459;-69
2021/07/15 10:55:16;;;;;;;16.20;10.50;;;;;;;17.82;100.00;101437.22;5215688;28;20108;-69
2021/07/15 10:57:51;;;;;;;13.70;10.13;;;;;;;17.83;100.00;101427.44;5214865;28;20364;-69
2021/07/15 11:00:23;;;;;;;14.68;10.50;;;;;;;17.85;100.00;101433.41;5216797;28;20453;-69
2021/07/15 11:03:17;;;;;;;12.38;9.38;;;;;;;17.90;100.00;101436.41;5218039;28;20152;-69
2021/07/15 11:05:48;;;;;;;;;;;;;;;18.06;100.00;101447.00;5216868;28;20041;-69
2021/07/15 11:08:48;;;;;;;13.40;9.83;;;;;;;17.89;100.00;101440.88;5215939;28;20098;-70
2021/07/15 11:11:41;;;;;;;12.57;9.85;;;;;;;17.88;100.00;101439.22;5216971;28;20412;-70
2021/07/15 11:14:41;;;;;;;11.40;9.55;;;;;;;17.90;100.00;101445.19;5220383;28;20041;-70
2021/07/15 11:17:21;;;;;;;12.43;9.73;;;;;;;17.86;100.00;101450.97;5218842;28;20188;-69
2021/07/15 11:20:04;;;;;;;13.35;8.15;;;;;;;17.91;100.00;101456.59;5217886;28;20117;-68
2021/07/15 11:22:46;;;;;;;10.38;8.65;;;;;;;17.78;100.00;101464.22;5219877;28;20061;-69
2021/07/15 11:25:33;;;;;;;11.05;8.98;;;;;;;17.77;100.00;101457.22;5220556;28;20062;-69
2021/07/15 11:28:10;;;;;;;13.85;10.02;;;;;;;17.74;100.00;101463.69;5216614;28;20033;-70
2021/07/15 11:30:53;;;;;;;15.18;9.80;;;;;;;17.74;100.00;101463.69;5219397;28;20037;-70
2021/07/15 11:33:26;;;;;;;16.23;10.93;;;;;;;17.69;100.00;101469.47;5218230;28;20109;-70
2021/07/15 11:36:07;;;;;;;15.77;10.45;;;;;;;17.77;100.00;101467.84;5217633;28;20050;-69
2021/07/15 11:38:53;;;;;;;12.93;10.95;;;;;;;17.64;100.00;101447.91;5219752;28;20047;-70
2021/07/15 11:41:41;;;;;;;14.18;11.10;;;;;;;17.84;100.00;101476.81;5219878;28;20209;-69